Time;durP1;ratioP1;P1;durP2;ratioP2;P2;SDS_P1;SDS_P2;PMS_P1;PMS_P2;Temp;Humidity;BMP_temperature;BMP_pressure;BME280_temperature;BME280_humidity;BME280_pressure;Samples;Min_cycle;Max_cycle;Signal;HPM_P1;HPM_P2
2022/10/03 00:01:59;;;;;;;8.03;2.77;;;;;;;8.83;100.00;102584.28;4955721;29;20083;-35
2022/10/03 00:05:05;;;;;;;8.27;3.22;;;;;;;8.79;100.00;102577.59;5055930;28;20464;-35
2022/10/03 00:08:03;;;;;;;8.88;3.05;;;;;;;8.74;100.00;102581.66;5055743;28;20025;-35
2022/10/03 00:10:51;;;;;;;7.00;2.92;;;;;;;8.81;100.00;102573.69;5056412;28;20032;-35
2022/10/03 00:13:35;;;;;;;9.25;3.08;;;;;;;8.77;100.00;102575.03;5055323;28;20115;-35
2022/10/03 00:16:16;;;;;;;9.48;3.42;;;;;;;8.82;100.00;102580.75;5056102;28;20039;-35
2022/10/03 00:18:51;;;;;;;10.18;3.55;;;;;;;8.85;100.00;102580.41;5055776;28;20047;-35
2022/10/03 00:21:22;;;;;;;8.95;3.10;;;;;;;8.81;100.00;102587.16;5055841;28;20374;-35
2022/10/03 00:23:53;;;;;;;12.50;3.05;;;;;;;8.82;100.00;102586.16;5055474;28;20025;-35
2022/10/03 00:27:03;;;;;;;8.10;3.03;;;;;;;8.75;100.00;102587.88;5055125;28;20069;-35
2022/10/03 00:29:41;;;;;;;9.27;3.22;;;;;;;8.65;100.00;102590.78;4954266;28;20576;-35
2022/10/03 00:32:15;;;;;;;9.43;2.90;;;;;;;8.58;100.00;102584.41;4954862;29;20200;-35
2022/10/03 00:34:49;;;;;;;10.10;2.90;;;;;;;8.58;100.00;102599.75;4954748;29;20625;-35
2022/10/03 00:37:32;;;;;;;8.38;2.72;;;;;;;8.61;100.00;102596.72;4955085;29;20035;-35
2022/10/03 00:39:58;;;;;;;8.13;2.88;;;;;;;8.49;99.52;102593.53;4955048;29;20075;-35
2022/10/03 00:42:48;;;;;;;8.13;2.72;;;;;;;8.38;99.17;102597.47;4954872;29;20380;-35
2022/10/03 00:45:20;;;;;;;9.23;2.88;;;;;;;8.49;100.00;102605.19;4954861;29;20031;-35
2022/10/03 00:48:22;;;;;;;7.38;2.90;;;;;;;8.48;99.79;102608.88;4954898;29;20610;-35
2022/10/03 00:51:12;;;;;;;8.73;2.58;;;;;;;8.41;99.13;102607.91;4961229;28;20058;-35
2022/10/03 00:53:44;;;;;;;11.43;2.92;;;;;;;8.42;99.84;102614.13;4974483;28;20192;-35
2022/10/03 00:56:30;;;;;;;5.80;2.83;;;;;;;8.38;100.00;102610.94;4974309;28;20468;-35
2022/10/03 00:59:09;;;;;;;7.10;2.63;;;;;;;8.35;100.00;102611.28;4974238;28;20431;-35
2022/10/03 01:01:43;;;;;;;9.25;3.20;;;;;;;8.32;100.00;102617.00;4974096;28;20039;-36
2022/10/03 01:04:14;;;;;;;9.80;3.22;;;;;;;8.18;100.00;102601.53;4957211;28;20063;-35
2022/10/03 01:07:09;;;;;;;8.52;3.08;;;;;;;8.30;100.00;102620.91;5013652;28;20041;-35
2022/10/03 01:10:10;;;;;;;9.05;2.80;;;;;;;8.25;100.00;102630.34;5035241;28;20036;-35
2022/10/03 01:12:47;;;;;;;8.57;2.67;;;;;;;8.20;100.00;102631.88;5034878;28;20060;-35
2022/10/03 01:15:37;;;;;;;8.90;2.80;;;;;;;8.23;100.00;102634.19;5034896;28;20381;-35
2022/10/03 01:18:26;;;;;;;8.23;2.90;;;;;;;8.34;100.00;102639.22;5034582;28;20038;-35
2022/10/03 01:20:51;;;;;;;8.60;2.70;;;;;;;8.20;100.00;102621.94;5034238;28;20489;-35
2022/10/03 01:23:35;;;;;;;8.97;2.67;;;;;;;8.33;100.00;102642.94;5034409;28;20036;-35
2022/10/03 01:26:13;;;;;;;8.45;2.88;;;;;;;8.29;100.00;102641.59;5034386;28;20026;-35
2022/10/03 01:31:50;;;;;;;10.30;3.00;;;;;;;8.14;100.00;102625.28;5034716;28;20044;-35
2022/10/03 01:34:44;;;;;;;8.43;2.72;;;;;;;8.26;100.00;102648.19;5034403;28;20271;-35
2022/10/03 01:37:34;;;;;;;6.97;2.95;;;;;;;8.22;100.00;102646.00;4973054;28;20069;-35
2022/10/03 01:40:25;;;;;;;7.15;2.42;;;;;;;8.07;99.89;102647.72;4973540;28;20031;-35
2022/10/03 01:43:03;;;;;;;8.07;2.72;;;;;;;7.74;99.11;102626.19;4972948;28;20117;-35
2022/10/03 01:45:40;;;;;;;6.60;2.42;;;;;;;7.83;100.00;102652.09;4973451;28;20480;-35
2022/10/03 01:49:01;;;;;;;5.70;2.63;;;;;;;7.88;100.00;102649.75;4973252;28;20039;-35
2022/10/03 01:51:33;;;;;;;6.35;2.67;;;;;;;7.80;100.00;102646.19;4946370;29;20148;-35
2022/10/03 01:54:32;;;;;;;6.22;2.75;;;;;;;7.86;100.00;102643.69;4953917;28;20118;-35
2022/10/03 01:57:20;;;;;;;6.85;2.92;;;;;;;7.94;100.00;102638.28;4953406;29;20071;-35
2022/10/03 02:00:07;;;;;;;7.60;2.72;;;;;;;7.93;100.00;102625.00;4953890;29;20493;-35
2022/10/03 02:02:42;;;;;;;6.43;2.97;;;;;;;7.97;100.00;102640.66;4953313;29;20038;-35
2022/10/03 02:05:26;;;;;;;8.45;2.60;;;;;;;8.00;100.00;102642.16;4953266;29;20042;-35
2022/10/03 02:08:04;;;;;;;7.07;3.20;;;;;;;7.91;100.00;102632.41;4953364;29;20046;-35
2022/10/03 02:10:47;;;;;;;7.63;2.67;;;;;;;7.91;100.00;102641.34;4953115;29;20035;-35
2022/10/03 02:13:20;;;;;;;7.40;2.78;;;;;;;7.89;100.00;102645.19;4961389;28;20038;-35
2022/10/03 02:16:16;;;;;;;8.38;3.20;;;;;;;7.93;100.00;102646.53;4992293;28;20093;-35
2022/10/03 02:19:05;;;;;;;6.80;2.67;;;;;;;7.94;100.00;102654.44;4992269;28;20038;-35
2022/10/03 02:21:31;;;;;;;6.53;2.40;;;;;;;7.70;100.00;102652.59;4991594;28;20089;-35
2022/10/03 02:24:23;;;;;;;8.48;2.88;;;;;;;7.85;100.00;102660.84;4991743;28;20125;-35
2022/10/03 02:27:00;;;;;;;12.30;3.55;;;;;;;7.67;100.00;102657.50;5033309;28;20025;-34
2022/10/03 02:29:35;;;;;;;6.00;2.55;;;;;;;7.73;100.00;102652.28;5033348;28;20441;-35
2022/10/03 02:32:22;;;;;;;4.45;2.80;;;;;;;7.70;100.00;102647.22;5033762;28;20040;-34
2022/10/03 02:35:11;;;;;;;7.55;2.60;;;;;;;7.62;100.00;102643.69;5033388;28;20029;-34
2022/10/03 02:38:04;;;;;;;7.20;2.72;;;;;;;7.67;100.00;102658.34;5033716;28;20048;-34
2022/10/03 02:40:48;;;;;;;3.90;2.10;;;;;;;7.61;100.00;102664.41;5033031;28;20026;-35
2022/10/03 02:43:52;;;;;;;9.27;3.10;;;;;;;7.55;100.00;102662.34;5033753;28;20025;-34
2022/10/03 02:46:59;;;;;;;8.18;2.90;;;;;;;7.56;100.00;102655.94;4933827;29;20036;-34
2022/10/03 02:49:49;;;;;;;7.57;3.15;;;;;;;7.49;100.00;102653.09;4877021;29;20124;-34
2022/10/03 02:52:40;;;;;;;7.55;2.67;;;;;;;7.56;100.00;102650.56;4894565;29;20072;-34
2022/10/03 02:55:26;;;;;;;7.38;2.70;;;;;;;7.59;100.00;102652.09;4895606;29;20188;-34
2022/10/03 02:58:26;;;;;;;7.32;2.75;;;;;;;7.63;100.00;102650.75;4896007;29;20041;-34
2022/10/03 03:01:03;;;;;;;8.35;2.58;;;;;;;7.47;100.00;102651.59;4895561;29;20044;-34
2022/10/03 03:03:51;;;;;;;5.70;2.38;;;;;;;7.36;99.66;102652.72;4895971;29;20036;-35
2022/10/03 03:06:32;;;;;;;7.57;2.90;;;;;;;7.40;100.00;102647.88;4895769;29;20128;-34
2022/10/03 03:09:37;;;;;;;7.95;3.00;;;;;;;7.44;100.00;102658.13;4895477;29;20039;-34
2022/10/03 03:12:10;;;;;;;5.88;2.45;;;;;;;7.43;100.00;102651.06;4895543;29;20421;-34
2022/10/03 03:15:08;;;;;;;8.05;2.83;;;;;;;7.48;100.00;102650.59;4895477;29;20044;-34
2022/10/03 03:17:55;;;;;;;8.93;2.78;;;;;;;7.47;100.00;102655.13;4895651;29;20119;-34
2022/10/03 03:20:40;;;;;;;;;;;;;;;7.60;100.00;102659.16;4946229;28;20104;-34
2022/10/03 03:23:35;;;;;;;8.32;2.78;;;;;;;7.53;100.00;102677.00;4991703;28;19964;-34
2022/10/03 03:26:00;;;;;;;5.95;2.67;;;;;;;7.49;100.00;102671.94;5022532;28;20041;-34
2022/10/03 03:29:03;;;;;;;9.70;2.63;;;;;;;7.47;100.00;102663.19;5052848;28;20051;-34
2022/10/03 03:32:06;;;;;;;6.47;2.92;;;;;;;7.47;100.00;102660.50;5053133;28;20028;-34
2022/10/03 03:34:42;;;;;;;8.40;2.80;;;;;;;7.38;100.00;102664.19;5053023;28;20031;-34
2022/10/03 03:37:18;;;;;;;8.00;2.90;;;;;;;7.33;100.00;102665.69;5052539;28;20025;-34
2022/10/03 03:40:02;;;;;;;5.65;2.72;;;;;;;7.25;100.00;102655.75;5052758;28;20317;-34
2022/10/03 03:42:30;;;;;;;7.03;2.85;;;;;;;7.15;100.00;102671.19;5034715;28;20501;-34
2022/10/03 03:45:13;;;;;;;6.65;3.08;;;;;;;7.12;100.00;102674.19;5053160;28;20029;-34
2022/10/03 03:47:56;;;;;;;7.70;3.03;;;;;;;7.15;100.00;102674.72;5052815;28;20420;-34
2022/10/03 03:50:35;;;;;;;8.45;3.05;;;;;;;7.14;100.00;102672.22;5052707;28;20048;-34
2022/10/03 03:53:31;;;;;;;4.72;2.65;;;;;;;7.10;100.00;102665.47;5053019;28;20465;-34
2022/10/03 03:56:20;;;;;;;8.10;2.88;;;;;;;7.16;100.00;102665.63;5052560;28;20032;-34
2022/10/03 03:59:15;;;;;;;7.95;2.58;;;;;;;7.11;100.00;102669.84;5052723;28;20025;-34
2022/10/03 04:01:48;;;;;;;5.22;2.60;;;;;;;7.00;99.97;102670.97;5052545;28;20032;-34
2022/10/03 04:04:31;;;;;;;7.82;2.90;;;;;;;7.09;100.00;102674.53;5053067;28;20534;-34
2022/10/03 04:07:25;;;;;;;6.40;2.90;;;;;;;6.98;100.00;102673.00;5055805;28;20029;-34
2022/10/03 04:10:12;;;;;;;6.80;3.03;;;;;;;7.09;100.00;102674.53;4994182;28;20066;-34
2022/10/03 04:12:56;;;;;;;;;;;;;;;7.19;100.00;102669.88;4995074;28;20057;-34
2022/10/03 04:15:35;;;;;;;8.98;3.00;;;;;;;7.18;100.00;102676.25;4994512;28;20012;-34
2022/10/03 04:21:27;;;;;;;6.47;3.10;;;;;;;7.15;100.00;102682.78;4994675;28;20042;-34
2022/10/03 04:24:18;;;;;;;8.25;2.97;;;;;;;7.13;100.00;102671.38;4994506;28;20046;-34
2022/10/03 04:26:50;;;;;;;6.80;2.65;;;;;;;7.10;100.00;102684.28;4993925;28;20553;-34
2022/10/03 04:29:29;;;;;;;8.10;2.80;;;;;;;7.01;100.00;102674.50;4994514;28;20034;-34
2022/10/03 04:32:00;;;;;;;10.40;3.00;;;;;;;7.08;100.00;102689.84;4993910;28;20433;-34
2022/10/03 04:34:34;;;;;;;8.32;3.22;;;;;;;6.97;100.00;102690.97;4994157;28;20386;-34
2022/10/03 04:37:23;;;;;;;6.50;2.78;;;;;;;6.90;100.00;102691.78;4994046;28;20077;-34
2022/10/03 04:40:19;;;;;;;4.18;2.40;;;;;;;6.93;100.00;102684.25;4994357;28;20053;-34
2022/10/03 04:43:08;;;;;;;5.68;2.67;;;;;;;6.88;100.00;102685.72;4993740;28;20109;-34
2022/10/03 04:45:58;;;;;;;6.72;2.90;;;;;;;6.81;100.00;102688.22;4996669;28;20053;-34
2022/10/03 04:48:37;;;;;;;8.63;3.20;;;;;;;6.84;100.00;102681.69;5055211;28;20033;-34
2022/10/03 04:51:21;;;;;;;7.47;3.05;;;;;;;6.76;100.00;102678.94;5055481;28;20131;-34
2022/10/03 04:54:01;;;;;;;5.90;2.58;;;;;;;6.70;100.00;102685.81;5055543;28;20040;-34
2022/10/03 04:56:41;;;;;;;5.85;2.80;;;;;;;6.66;100.00;102687.13;5055408;28;20017;-34
2022/10/03 04:59:25;;;;;;;7.03;2.65;;;;;;;6.58;99.67;102692.47;5055599;28;20043;-34
2022/10/03 05:01:53;;;;;;;7.00;2.78;;;;;;;6.53;99.62;102689.41;5055410;28;20036;-34
2022/10/03 05:04:35;;;;;;;9.57;2.92;;;;;;;6.49;100.00;102690.72;5055299;28;20448;-34
2022/10/03 05:07:13;;;;;;;6.10;3.22;;;;;;;6.40;100.00;102677.25;5054791;28;20030;-34
2022/10/03 05:09:54;;;;;;;5.40;2.60;;;;;;;6.47;99.95;102690.06;5054448;28;20025;-35
2022/10/03 05:12:38;;;;;;;6.28;2.88;;;;;;;6.43;100.00;102695.72;5054525;28;20473;-35
2022/10/03 05:15:10;;;;;;;10.23;3.83;;;;;;;6.43;100.00;102695.72;5036676;28;20080;-35
2022/10/03 05:18:01;;;;;;;6.00;3.20;;;;;;;6.41;100.00;102700.44;5054437;28;20029;-35
2022/10/03 05:20:33;;;;;;;10.45;3.25;;;;;;;6.41;100.00;102692.38;5054235;28;20474;-34
2022/10/03 05:23:18;;;;;;;8.65;3.60;;;;;;;6.43;100.00;102695.72;5054127;28;20083;-35
2022/10/03 05:25:59;;;;;;;10.00;3.85;;;;;;;6.42;100.00;102687.84;5054850;28;20025;-34
2022/10/03 05:28:46;;;;;;;6.00;3.08;;;;;;;6.38;100.00;102703.44;5054874;28;20029;-34
2022/10/03 05:31:32;;;;;;;8.23;3.23;;;;;;;6.30;100.00;102697.19;5054494;28;20033;-35
2022/10/03 05:34:08;;;;;;;6.87;3.20;;;;;;;6.23;100.00;102696.09;5054312;28;20064;-35
2022/10/03 05:36:42;;;;;;;6.28;2.72;;;;;;;6.36;100.00;102709.97;5054283;28;20060;-34
2022/10/03 05:39:16;;;;;;;5.32;3.40;;;;;;;6.35;100.00;102711.81;5054574;28;20036;-35
2022/10/03 05:42:11;;;;;;;6.75;3.42;;;;;;;6.37;100.00;102717.88;5053994;28;20052;-34
2022/10/03 05:45:01;;;;;;;6.15;3.00;;;;;;;6.29;100.00;102720.50;5054544;28;20037;-34
2022/10/03 05:47:44;;;;;;;6.30;3.30;;;;;;;6.29;100.00;102720.50;4972975;28;20047;-35
2022/10/03 05:50:27;;;;;;;6.45;3.05;;;;;;;6.39;100.00;102725.75;4973210;28;20043;-35
2022/10/03 05:53:05;;;;;;;8.13;3.53;;;;;;;6.43;100.00;102727.97;4976771;28;20050;-35
2022/10/03 05:55:59;;;;;;;8.35;3.15;;;;;;;6.41;100.00;102730.00;4992394;28;20046;-35
2022/10/03 05:58:46;;;;;;;4.15;2.60;;;;;;;6.33;100.00;102735.31;4992134;28;20058;-35
2022/10/03 06:01:37;;;;;;;7.68;3.30;;;;;;;6.31;100.00;102706.91;4992351;28;20030;-35
2022/10/03 06:04:08;;;;;;;6.35;3.30;;;;;;;6.44;100.00;102734.19;4991854;28;20061;-38
2022/10/03 06:06:45;;;;;;;8.27;3.38;;;;;;;6.38;100.00;102729.47;4992244;28;20030;-35
2022/10/03 06:09:44;;;;;;;8.05;4.10;;;;;;;6.41;100.00;102730.00;4991859;28;20455;-34
2022/10/03 06:12:39;;;;;;;7.07;3.30;;;;;;;6.46;100.00;102734.91;4992413;28;20042;-35
2022/10/03 06:15:25;;;;;;;7.22;3.45;;;;;;;6.39;100.00;102720.38;4991872;28;20041;-35
2022/10/03 06:17:53;;;;;;;8.13;3.15;;;;;;;6.39;100.00;102733.81;4991813;28;20038;-35
2022/10/03 06:20:40;;;;;;;6.70;3.10;;;;;;;6.49;100.00;102739.97;4991745;28;20109;-35
2022/10/03 06:23:24;;;;;;;6.28;2.95;;;;;;;6.41;100.00;102735.38;4991669;28;20042;-35
2022/10/03 06:25:56;;;;;;;6.18;2.88;;;;;;;6.42;100.00;102734.38;5050550;28;20414;-35
2022/10/03 06:28:49;;;;;;;8.70;3.28;;;;;;;6.53;100.00;102751.22;5052331;28;20031;-35
2022/10/03 06:31:50;;;;;;;9.50;3.10;;;;;;;6.50;100.00;102732.75;5053069;28;20041;-35
2022/10/03 06:34:53;;;;;;;7.55;3.17;;;;;;;6.64;100.00;102740.22;5053472;28;20457;-35
2022/10/03 06:37:32;;;;;;;6.15;3.17;;;;;;;6.51;100.00;102732.59;5052969;28;20431;-34
2022/10/03 06:40:28;;;;;;;8.73;3.40;;;;;;;6.64;100.00;102751.81;5053111;28;20033;-34
2022/10/03 06:43:10;;;;;;;8.25;2.97;;;;;;;6.62;100.00;102756.50;5052889;28;20474;-37
2022/10/03 06:45:35;;;;;;;7.00;2.55;;;;;;;6.70;100.00;102750.34;5053527;28;20112;-35
2022/10/03 06:48:27;;;;;;;8.67;3.40;;;;;;;6.73;100.00;102744.63;5053470;28;20061;-35
2022/10/03 06:50:59;;;;;;;7.90;3.10;;;;;;;6.78;100.00;102747.69;5053907;28;20053;-35
2022/10/03 06:53:53;;;;;;;9.57;4.22;;;;;;;6.90;100.00;102746.41;5053431;28;20120;-35
2022/10/03 06:56:39;;;;;;;5.65;3.10;;;;;;;6.83;100.00;102745.38;5053417;28;20032;-35
2022/10/03 06:59:19;;;;;;;5.53;3.20;;;;;;;7.01;100.00;102756.03;5053140;28;20021;-35
2022/10/03 07:02:15;;;;;;;11.90;3.60;;;;;;;7.16;100.00;102748.22;5052948;28;20167;-35
2022/10/03 07:05:22;;;;;;;7.85;3.17;;;;;;;7.19;100.00;102746.03;5053548;28;20028;-34
2022/10/03 07:08:17;;;;;;;7.22;3.65;;;;;;;7.37;100.00;102759.41;5011453;28;20045;-35
2022/10/03 07:11:10;;;;;;;6.63;2.97;;;;;;;7.46;100.00;102758.41;5011557;28;20525;-34
2022/10/03 07:14:11;;;;;;;6.72;3.30;;;;;;;7.47;100.00;102770.88;5011079;28;20030;-35
2022/10/03 07:16:46;;;;;;;6.50;3.28;;;;;;;7.53;100.00;102763.16;4972169;28;20186;-34
2022/10/03 07:19:33;;;;;;;7.75;3.40;;;;;;;7.73;100.00;102761.84;4972145;28;20496;-35
2022/10/03 07:22:23;;;;;;;12.15;4.28;;;;;;;7.89;100.00;102766.41;4971805;28;20034;-34
2022/10/03 07:25:14;;;;;;;8.50;3.85;;;;;;;8.04;100.00;102762.03;4972493;28;20050;-35
2022/10/03 07:27:51;;;;;;;9.40;3.53;;;;;;;8.05;100.00;102752.09;4972049;28;20039;-34
2022/10/03 07:30:18;;;;;;;8.03;3.37;;;;;;;8.22;100.00;102745.72;4972428;28;20050;-34
2022/10/03 07:33:02;;;;;;;9.77;4.20;;;;;;;8.40;100.00;102761.75;4971679;28;20053;-39
2022/10/03 07:38:56;;;;;;;6.93;3.47;;;;;;;8.39;100.00;102771.66;4972062;28;20211;-34
2022/10/03 07:38:58;;;;;;;10.07;4.22;;;;;;;8.63;100.00;102778.06;4971747;28;20043;-34
2022/10/03 07:42:08;;;;;;;10.23;4.23;;;;;;;8.76;100.00;102771.13;4975746;28;20114;-35
2022/10/03 07:44:34;;;;;;;9.75;3.88;;;;;;;8.87;100.00;102772.59;5010012;28;20108;-35
2022/10/03 07:47:18;;;;;;;;;;;;;;;8.90;100.00;102774.97;5014988;28;20037;-35
2022/10/03 07:50:22;;;;;;;9.85;3.92;;;;;;;9.01;100.00;102787.25;5021208;28;19909;-34
2022/10/03 07:53:19;;;;;;;9.05;4.07;;;;;;;9.13;100.00;102785.03;5056805;28;20469;-35
2022/10/03 07:56:16;;;;;;;10.27;4.38;;;;;;;9.24;100.00;102792.75;5057094;28;20029;-35
2022/10/03 07:59:22;;;;;;;6.95;3.80;;;;;;;9.28;100.00;102794.09;5056948;28;20108;-34
2022/10/03 08:02:09;;;;;;;9.73;4.40;;;;;;;9.46;100.00;102800.06;5013932;28;20038;-35
2022/10/03 08:04:43;;;;;;;9.57;4.10;;;;;;;9.71;100.00;102797.22;4998010;28;20034;-35
2022/10/03 08:07:46;;;;;;;9.60;4.85;;;;;;;9.83;100.00;102797.69;5014493;28;20121;-35
2022/10/03 08:10:42;;;;;;;12.27;4.78;;;;;;;9.97;100.00;102800.47;4975317;28;20441;-35
2022/10/03 08:13:40;;;;;;;15.05;4.95;;;;;;;10.09;100.00;102794.63;4975026;28;20066;-35
2022/10/03 08:16:09;;;;;;;;;;;;;;;10.17;100.00;102789.16;4975598;28;20047;-35
2022/10/03 08:18:43;;;;;;;9.43;4.30;;;;;;;10.36;100.00;102788.69;4975008;28;19910;-35
2022/10/03 08:21:17;;;;;;;10.20;4.20;;;;;;;10.43;100.00;102776.13;4974964;28;20058;-35
2022/10/03 08:24:25;;;;;;;9.00;4.15;;;;;;;10.58;100.00;102776.16;4974608;28;20066;-35
2022/10/03 08:27:09;;;;;;;;;;;;;;;10.70;100.00;102781.97;4917868;29;20039;-35
2022/10/03 08:29:58;;;;;;;8.95;3.83;;;;;;;10.86;100.00;102779.06;4917654;29;19911;-35
2022/10/03 08:32:33;;;;;;;9.13;4.45;;;;;;;10.92;100.00;102774.78;4917357;29;20055;-35
2022/10/03 08:35:26;;;;;;;10.02;4.10;;;;;;;11.11;100.00;102785.06;4917162;29;20040;-35
2022/10/03 08:38:23;;;;;;;8.00;4.22;;;;;;;11.21;100.00;102774.78;4925614;29;20512;-35
2022/10/03 08:41:07;;;;;;;14.40;4.88;;;;;;;11.34;100.00;102777.66;4963908;28;20392;-34
2022/10/03 08:44:01;;;;;;;11.30;4.50;;;;;;;11.64;100.00;102790.31;4974822;28;20133;-35
2022/10/03 08:46:45;;;;;;;11.05;4.20;;;;;;;11.76;100.00;102796.91;4974200;28;20034;-35
2022/10/03 08:50:04;;;;;;;10.55;4.53;;;;;;;11.97;100.00;102788.84;4974708;28;20118;-35
2022/10/03 08:52:54;;;;;;;9.93;3.75;;;;;;;12.12;100.00;102788.78;4973153;28;20109;-35
2022/10/03 08:55:25;;;;;;;9.75;3.55;;;;;;;12.32;100.00;102791.66;4974793;28;20038;-35
2022/10/03 08:58:44;;;;;;;7.63;3.38;;;;;;;12.48;100.00;102794.09;4974620;28;20038;-35
2022/10/03 09:01:15;;;;;;;7.63;3.42;;;;;;;12.53;100.00;102794.34;4962585;28;20039;-35
2022/10/03 09:04:05;;;;;;;7.18;2.92;;;;;;;12.68;100.00;102791.53;4974315;28;20023;-35
2022/10/03 09:06:52;;;;;;;8.05;3.17;;;;;;;12.78;100.00;102793.91;4974164;28;20422;-35
2022/10/03 09:09:36;;;;;;;9.77;2.83;;;;;;;12.77;100.00;102784.09;4974279;28;20159;-35
2022/10/03 09:12:11;;;;;;;8.07;2.78;;;;;;;12.83;100.00;102794.13;4974140;28;20046;-35
2022/10/03 09:14:55;;;;;;;8.90;2.70;;;;;;;12.96;100.00;102794.25;4974068;28;20045;-35
2022/10/03 09:17:57;;;;;;;6.38;2.53;;;;;;;13.23;100.00;102800.72;4973541;28;20031;-35
2022/10/03 09:20:50;;;;;;;5.00;2.05;;;;;;;13.44;100.00;102793.47;4973875;28;20030;-35
2022/10/03 09:23:53;;;;;;;9.35;2.40;;;;;;;13.46;100.00;102792.22;4973543;28;20093;-35
2022/10/03 09:26:43;;;;;;;7.40;2.58;;;;;;;13.55;100.00;102788.28;4974240;28;20074;-35
2022/10/03 09:29:39;;;;;;;6.60;2.00;;;;;;;13.56;98.24;102781.81;4973976;28;20022;-35
2022/10/03 09:32:10;;;;;;;7.10;2.45;;;;;;;13.62;98.15;102780.19;5013553;28;20041;-36
2022/10/03 09:35:00;;;;;;;11.55;2.60;;;;;;;13.73;95.55;102785.00;5034753;28;20032;-35
2022/10/03 09:38:06;;;;;;;6.82;1.88;;;;;;;13.77;96.19;102778.13;5035605;28;20022;-35
2022/10/03 09:40:59;;;;;;;9.48;2.38;;;;;;;13.87;94.96;102781.28;5034747;28;20029;-36
2022/10/03 09:44:05;;;;;;;6.47;1.50;;;;;;;14.01;94.23;102779.44;5035172;28;20029;-36
2022/10/03 09:47:21;;;;;;;8.45;1.95;;;;;;;14.12;92.79;102770.66;4974002;28;20491;-36
2022/10/03 09:50:18;;;;;;;5.85;1.58;;;;;;;14.25;94.09;102771.69;4973585;28;20515;-36
2022/10/03 09:53:04;;;;;;;5.50;1.50;;;;;;;14.26;92.03;102766.06;4974004;28;20043;-36
2022/10/03 09:55:32;;;;;;;6.88;2.17;;;;;;;14.29;92.17;102756.63;4973587;28;20035;-37
2022/10/03 09:58:04;;;;;;;6.38;2.17;;;;;;;14.43;91.23;102764.56;4973644;28;20070;-36
2022/10/03 10:01:01;;;;;;;8.55;2.33;;;;;;;14.53;91.44;102764.19;4973629;28;20122;-36
2022/10/03 10:03:26;;;;;;;;;;;;;;;14.60;93.45;102765.03;4935517;29;20481;-36
2022/10/03 10:06:29;;;;;;;7.23;1.60;;;;;;;14.59;92.15;102763.38;4934571;29;19951;-36
2022/10/03 10:09:03;;;;;;;9.05;2.47;;;;;;;14.56;90.28;102758.31;4935291;29;20050;-36
2022/10/03 10:11:58;;;;;;;8.77;1.98;;;;;;;14.63;89.50;102767.31;4934613;29;20075;-36
2022/10/03 10:14:48;;;;;;;9.60;2.15;;;;;;;14.65;90.35;102759.78;4934411;29;20112;-36
2022/10/03 10:17:25;;;;;;;6.25;2.22;;;;;;;14.71;89.82;102766.28;4934770;29;20050;-36
2022/10/03 10:20:04;;;;;;;6.35;2.00;;;;;;;14.83;89.40;102761.81;4934349;29;20043;-36
2022/10/03 10:22:41;;;;;;;7.40;1.58;;;;;;;14.91;87.78;102766.22;4942549;28;20046;-36
2022/10/03 10:25:42;;;;;;;7.55;1.80;;;;;;;15.10;88.01;102761.78;4973201;28;20506;-36
2022/10/03 10:28:23;;;;;;;6.35;2.33;;;;;;;15.22;86.86;102768.22;4953427;29;20047;-35
2022/10/03 10:31:00;;;;;;;8.02;2.17;;;;;;;15.31;85.83;102750.56;4953234;29;20114;-35
2022/10/03 10:33:56;;;;;;;6.78;1.75;;;;;;;15.41;85.54;102748.22;4953746;29;20071;-36
2022/10/03 10:36:40;;;;;;;7.80;1.85;;;;;;;15.53;84.68;102751.13;4937679;29;20047;-35
2022/10/03 10:39:19;;;;;;;9.68;2.00;;;;;;;15.56;83.86;102747.94;4956157;28;20078;-35
2022/10/03 10:42:03;;;;;;;6.32;1.88;;;;;;;15.64;83.59;102749.59;4972461;28;20039;-35
2022/10/03 10:45:12;;;;;;;6.32;1.73;;;;;;;15.81;82.87;102749.91;4972073;28;20035;-39
2022/10/03 10:47:57;;;;;;;8.68;1.83;;;;;;;15.98;80.54;102748.34;4972446;28;20035;-35
2022/10/03 10:51:05;;;;;;;8.50;2.35;;;;;;;16.12;80.86;102755.38;4972122;28;20059;-35
2022/10/03 10:54:07;;;;;;;4.72;1.75;;;;;;;16.28;81.33;102755.88;4914736;29;20036;-35
2022/10/03 10:56:50;;;;;;;4.88;1.50;;;;;;;16.30;81.62;102746.44;4915143;29;20032;-35
2022/10/03 10:59:33;;;;;;;7.20;1.60;;;;;;;16.25;79.75;102757.19;4914530;29;20080;-35
2022/10/03 11:02:17;;;;;;;5.50;1.77;;;;;;;16.13;76.98;102757.03;4914854;29;20048;-35
2022/10/03 11:05:28;;;;;;;11.25;2.13;;;;;;;16.15;79.76;102752.22;4929944;29;20043;-35
2022/10/03 11:08:21;;;;;;;4.45;1.30;;;;;;;16.22;78.11;102752.97;4934094;29;20064;-35
2022/10/03 11:11:08;;;;;;;7.43;1.90;;;;;;;16.08;78.43;102748.69;4933388;29;20086;-35
2022/10/03 11:13:54;;;;;;;6.38;1.60;;;;;;;16.09;76.85;102747.63;4933259;29;20141;-36
2022/10/03 11:16:47;;;;;;;5.78;1.65;;;;;;;16.17;78.13;102749.25;4933910;29;20536;-35
2022/10/03 11:19:31;;;;;;;2.88;1.20;;;;;;;16.11;76.92;102740.06;4933935;29;20050;-36
2022/10/03 11:22:05;;;;;;;5.45;1.65;;;;;;;16.18;74.45;102738.09;4933808;29;20118;-36
2022/10/03 11:24:49;;;;;;;6.75;1.67;;;;;;;16.38;76.80;102735.19;4933504;29;20032;-36
2022/10/03 11:27:20;;;;;;;5.28;1.55;;;;;;;16.34;74.90;102738.59;4964819;28;20443;-36
2022/10/03 11:30:26;;;;;;;6.07;1.70;;;;;;;16.35;78.08;102740.28;5011552;28;20104;-37
2022/10/03 11:33:16;;;;;;;5.50;1.80;;;;;;;16.30;76.40;102734.63;4995466;28;20045;-36
2022/10/03 11:35:51;;;;;;;6.07;1.58;;;;;;;16.28;76.83;102734.03;5011376;28;20121;-36
2022/10/03 11:38:25;;;;;;;5.78;1.88;;;;;;;16.30;76.56;102734.63;5011286;28;20475;-36
2022/10/03 11:41:12;;;;;;;7.85;1.77;;;;;;;16.20;77.05;102732.41;5010807;28;20048;-36
2022/10/03 11:43:46;;;;;;;6.32;1.75;;;;;;;16.05;76.57;102723.72;5011007;28;20038;-36
2022/10/03 11:46:30;;;;;;;4.55;1.33;;;;;;;16.30;77.39;102735.50;5053298;28;20021;-36
2022/10/03 11:49:00;;;;;;;5.35;1.52;;;;;;;16.44;75.93;102733.47;5052866;28;20111;-36
2022/10/03 11:51:38;;;;;;;6.72;1.60;;;;;;;16.61;72.91;102726.38;5034654;28;20049;-36
2022/10/03 11:54:24;;;;;;;4.57;1.30;;;;;;;16.77;70.69;102733.16;5052729;28;20029;-34
2022/10/03 11:57:12;;;;;;;3.10;1.27;;;;;;;16.88;72.66;102740.59;5035054;28;20074;-35
2022/10/03 11:59:46;;;;;;;4.93;1.50;;;;;;;17.08;71.30;102732.22;5052839;28;20033;-35
2022/10/03 12:02:24;;;;;;;4.30;1.20;;;;;;;17.15;70.98;102732.94;5052819;28;20032;-35
2022/10/03 12:05:11;;;;;;;6.65;1.50;;;;;;;17.20;73.43;102730.34;5052882;28;20033;-35
2022/10/03 12:10:58;;;;;;;7.35;1.85;;;;;;;16.79;72.53;102730.19;5052565;28;20032;-35
2022/10/03 12:14:00;;;;;;;6.07;1.50;;;;;;;16.65;73.41;102740.44;5052092;28;20535;-35
2022/10/03 12:16:52;;;;;;;4.88;1.45;;;;;;;16.45;73.02;102719.59;5052313;28;20025;-35
2022/10/03 12:19:42;;;;;;;5.60;1.50;;;;;;;16.44;72.91;102728.84;5052765;28;20032;-35
2022/10/03 12:22:40;;;;;;;5.15;1.50;;;;;;;16.41;72.62;102733.94;5052390;28;20064;-35
2022/10/03 12:25:20;;;;;;;6.28;1.63;;;;;;;16.40;74.07;102714.00;5010627;28;20052;-35
2022/10/03 12:27:51;;;;;;;5.10;1.30;;;;;;;16.46;73.77;102721.28;5013560;28;20125;-35
2022/10/03 12:30:20;;;;;;;6.65;1.60;;;;;;;16.62;74.65;102708.91;5014116;28;20041;-35
2022/10/03 12:32:57;;;;;;;6.72;1.80;;;;;;;16.81;71.22;102717.16;5014060;28;20034;-35
2022/10/03 12:35:37;;;;;;;4.53;1.55;;;;;;;16.97;72.10;102716.53;5013871;28;20081;-35
2022/10/03 12:38:26;;;;;;;6.07;1.73;;;;;;;16.98;70.08;102708.16;5014049;28;20029;-35
2022/10/03 12:41:10;;;;;;;6.70;1.67;;;;;;;17.02;71.12;102705.75;5013927;28;20041;-35
2022/10/03 12:43:48;;;;;;;5.35;1.60;;;;;;;17.13;70.03;102701.41;5014131;28;20121;-35
2022/10/03 12:46:36;;;;;;;3.83;1.38;;;;;;;17.15;70.42;102705.59;5013933;28;20048;-35
2022/10/03 12:49:14;;;;;;;4.93;1.35;;;;;;;17.05;70.95;102705.31;5013548;28;20052;-34
2022/10/03 12:52:03;;;;;;;8.23;1.55;;;;;;;16.93;69.70;102698.94;5012958;28;20054;-34
2022/10/03 12:54:41;;;;;;;4.88;1.48;;;;;;;16.84;69.89;102698.44;5013340;28;20061;-35
2022/10/03 12:57:19;;;;;;;7.75;1.58;;;;;;;16.77;71.20;102700.38;5013817;28;20070;-35
2022/10/03 13:00:19;;;;;;;5.82;1.48;;;;;;;16.89;70.96;102705.94;5013924;28;20033;-35